Terminal Aerodrome Forecast
Issued by NWS

Home | Current Version | Previous Version | Text Only | Print | Product List | Glossary On
Versions: 1 2 3 4 5 6 7 8 9 10 11 12 13 14 15 16 17 18 19 20
603
FTUS43 KLSX 082330
TAFUIN
TAF
KUIN 082330Z 0900/0924 30009KT P6SM SCT035
     FM091200 30006KT P6SM FEW150
     FM091800 27007KT P6SM BKN090=

USA.gov is the U.S. government's official web portal to all federal, state and local government web resources and services.